Time;durP1;ratioP1;P1;durP2;ratioP2;P2;SDS_P1;SDS_P2;PMS_P1;PMS_P2;Temp;Humidity;BMP_temperature;BMP_pressure;BME280_temperature;BME280_humidity;BME280_pressure;Samples;Min_cycle;Max_cycle;Signal;HPM_P1;HPM_P2
2022/11/29 00:00:25;;;;;;;47.78;37.95;;;;;;;;;;5034550;28;20071;-64
2022/11/29 00:02:54;;;;;;;43.85;37.35;;;;;;;;;;5034985;28;20438;-63
2022/11/29 00:05:20;;;;;;;47.10;38.72;;;;;;;;;;5034391;28;20037;-64
2022/11/29 00:07:46;;;;;;;42.40;37.90;;;;;;;;;;5034559;28;20021;-64
2022/11/29 00:10:13;;;;;;;41.42;36.90;;;;;;;;;;5034610;28;20030;-63
2022/11/29 00:12:39;;;;;;;40.67;36.40;;;;;;;;;;5034550;28;20498;-64
2022/11/29 00:15:05;;;;;;;43.70;38.65;;;;;;;;;;5033062;28;20025;-64
2022/11/29 00:17:31;;;;;;;45.75;39.88;;;;;;;;;;5032892;28;20025;-64
2022/11/29 00:19:57;;;;;;;44.95;38.70;;;;;;;;;;5033139;28;20030;-65
2022/11/29 00:22:24;;;;;;;45.80;39.60;;;;;;;;;;5034045;28;20075;-65
2022/11/29 00:24:50;;;;;;;43.70;39.08;;;;;;;;;;5032454;28;20021;-64
2022/11/29 00:27:17;;;;;;;47.90;39.80;;;;;;;;;;5034100;28;20413;-65
2022/11/29 00:29:43;;;;;;;44.67;40.08;;;;;;;;;;5034005;28;20108;-64
2022/11/29 00:32:09;;;;;;;44.80;40.03;;;;;;;;;;5033810;28;20029;-65
2022/11/29 00:34:36;;;;;;;45.70;40.65;;;;;;;;;;5033537;28;20044;-64
2022/11/29 00:37:02;;;;;;;44.85;39.03;;;;;;;;;;5033464;28;20033;-64
2022/11/29 00:39:28;;;;;;;43.70;38.97;;;;;;;;;;5033670;28;20034;-64
2022/11/29 00:41:54;;;;;;;43.30;38.58;;;;;;;;;;5033659;28;20088;-65
2022/11/29 00:44:20;;;;;;;50.08;40.28;;;;;;;;;;5031934;28;20478;-65
2022/11/29 00:46:46;;;;;;;48.58;40.10;;;;;;;;;;5033256;28;20032;-65
2022/11/29 00:49:12;;;;;;;47.13;38.83;;;;;;;;;;5033447;28;20025;-65
2022/11/29 00:51:38;;;;;;;47.15;39.78;;;;;;;;;;5032178;28;20022;-65
2022/11/29 00:54:04;;;;;;;43.97;38.85;;;;;;;;;;5033298;28;20075;-65
2022/11/29 00:56:30;;;;;;;51.20;39.80;;;;;;;;;;5033411;28;20047;-64
2022/11/29 00:58:56;;;;;;;49.80;39.35;;;;;;;;;;5033437;28;20024;-65
2022/11/29 01:01:22;;;;;;;49.90;40.85;;;;;;;;;;5033124;28;20047;-65
2022/11/29 01:03:48;;;;;;;50.65;40.60;;;;;;;;;;5032848;28;20049;-65
2022/11/29 01:06:15;;;;;;;52.67;41.65;;;;;;;;;;5032931;28;20052;-64
2022/11/29 01:08:41;;;;;;;45.13;39.10;;;;;;;;;;5032605;28;20025;-65
2022/11/29 01:11:11;;;;;;;47.35;39.85;;;;;;;;;;5031730;28;20366;-64
2022/11/29 01:13:37;;;;;;;46.95;39.00;;;;;;;;;;5032748;28;20478;-64
2022/11/29 01:16:03;;;;;;;53.65;38.72;;;;;;;;;;5032934;28;20021;-63
2022/11/29 01:18:29;;;;;;;54.80;39.40;;;;;;;;;;5031622;28;20029;-65
2022/11/29 01:21:03;;;;;;;53.25;40.55;;;;;;;;;;5032724;28;20025;-64
2022/11/29 01:23:29;;;;;;;51.03;38.65;;;;;;;;;;5031423;28;20026;-64
2022/11/29 01:26:00;;;;;;;64.03;49.58;;;;;;;;;;5031645;28;20124;-65
2022/11/29 01:28:26;;;;;;;52.65;38.72;;;;;;;;;;5031215;28;20112;-63
2022/11/29 01:30:52;;;;;;;52.10;40.72;;;;;;;;;;5032558;28;20033;-63
2022/11/29 01:33:18;;;;;;;56.22;40.63;;;;;;;;;;5032283;28;20052;-63
2022/11/29 01:35:49;;;;;;;62.42;41.42;;;;;;;;;;5031254;28;20067;-64
2022/11/29 01:38:15;;;;;;;58.25;41.40;;;;;;;;;;5031316;28;20033;-64
2022/11/29 01:40:41;;;;;;;55.90;41.13;;;;;;;;;;5032483;28;20529;-65
2022/11/29 01:43:17;;;;;;;55.53;43.28;;;;;;;;;;5032195;28;20026;-64
2022/11/29 01:45:44;;;;;;;50.30;40.75;;;;;;;;;;5032624;28;20025;-65
2022/11/29 01:48:11;;;;;;;53.13;41.75;;;;;;;;;;5032465;28;20057;-65
2022/11/29 01:50:39;;;;;;;63.53;41.65;;;;;;;;;;5032407;28;20445;-64
2022/11/29 01:53:05;;;;;;;58.03;41.47;;;;;;;;;;5032186;28;20068;-65
2022/11/29 01:55:32;;;;;;;65.28;40.42;;;;;;;;;;5030952;28;20370;-65
2022/11/29 01:57:59;;;;;;;50.45;38.42;;;;;;;;;;5032148;28;20132;-65
2022/11/29 02:00:25;;;;;;;55.47;40.50;;;;;;;;;;5032203;28;20048;-64
2022/11/29 02:02:53;;;;;;;60.42;41.17;;;;;;;;;;5032088;28;20060;-64
2022/11/29 02:05:19;;;;;;;60.03;38.92;;;;;;;;;;5031887;28;20116;-65
2022/11/29 02:07:47;;;;;;;67.72;40.15;;;;;;;;;;5031947;28;20417;-64
2022/11/29 02:10:14;;;;;;;70.05;38.65;;;;;;;;;;5031926;28;20465;-64
2022/11/29 02:12:50;;;;;;;79.90;41.95;;;;;;;;;;5030613;28;20108;-65
2022/11/29 02:15:19;;;;;;;77.53;40.70;;;;;;;;;;5031719;28;20029;-64
2022/11/29 02:18:04;;;;;;;61.88;39.10;;;;;;;;;;5031617;28;20056;-63
2022/11/29 02:20:48;;;;;;;54.03;37.25;;;;;;;;;;5030678;28;20167;-64
2022/11/29 02:23:23;;;;;;;68.78;38.75;;;;;;;;;;5030099;28;20029;-64
2022/11/29 02:26:08;;;;;;;132.75;47.60;;;;;;;;;;5031650;28;20395;-65
2022/11/29 02:28:37;;;;;;;50.88;39.03;;;;;;;;;;5031618;28;20025;-64
2022/11/29 02:31:18;;;;;;;57.72;40.03;;;;;;;;;;5031702;28;20104;-63
2022/11/29 02:33:53;;;;;;;79.53;42.55;;;;;;;;;;5031333;28;20116;-64
2022/11/29 02:36:22;;;;;;;63.90;41.08;;;;;;;;;;5031203;28;20018;-63
2022/11/29 02:39:07;;;;;;;61.33;42.03;;;;;;;;;;5031338;28;20034;-65
2022/11/29 02:41:51;;;;;;;55.60;40.53;;;;;;;;;;5031357;28;20120;-64
2022/11/29 02:44:22;;;;;;;71.20;40.97;;;;;;;;;;5031187;28;20033;-64
2022/11/29 02:47:01;;;;;;;69.15;41.95;;;;;;;;;;5031313;28;20025;-64
2022/11/29 02:49:32;;;;;;;76.93;44.25;;;;;;;;;;5031275;28;20485;-65
2022/11/29 02:52:00;;;;;;;98.97;43.63;;;;;;;;;;5031383;28;20192;-65
2022/11/29 02:54:35;;;;;;;70.13;44.20;;;;;;;;;;5031020;28;20463;-65
2022/11/29 02:57:10;;;;;;;73.18;41.95;;;;;;;;;;5029755;28;20077;-65
2022/11/29 02:59:36;;;;;;;58.10;41.50;;;;;;;;;;5029880;28;20183;-67
2022/11/29 03:02:16;;;;;;;80.28;44.03;;;;;;;;;;5029684;28;20125;-64
2022/11/29 03:05:02;;;;;;;80.25;44.55;;;;;;;;;;5029397;28;20114;-63
2022/11/29 03:07:46;;;;;;;66.70;40.75;;;;;;;;;;5029568;28;20505;-64
2022/11/29 03:10:12;;;;;;;66.60;40.53;;;;;;;;;;5029597;28;20124;-64
2022/11/29 03:12:39;;;;;;;63.42;40.80;;;;;;;;;;5031067;28;20045;-64
2022/11/29 03:15:26;;;;;;;64.13;44.10;;;;;;;;;;5029326;28;20026;-64
2022/11/29 03:18:10;;;;;;;63.30;42.80;;;;;;;;;;5030486;28;20116;-65
2022/11/29 03:21:02;;;;;;;61.70;40.72;;;;;;;;;;5030825;28;20061;-64
2022/11/29 03:23:50;;;;;;;71.70;42.85;;;;;;;;;;5029203;28;20091;-64
2022/11/29 03:26:28;;;;;;;70.00;42.38;;;;;;;;;;5029224;28;20017;-64
2022/11/29 03:28:59;;;;;;;61.53;41.40;;;;;;;;;;5030414;28;20083;-65
2022/11/29 03:31:25;;;;;;;61.90;41.63;;;;;;;;;;5029975;28;20508;-68
2022/11/29 03:34:07;;;;;;;64.53;42.92;;;;;;;;;;5030275;28;20147;-63
2022/11/29 03:36:52;;;;;;;60.33;41.78;;;;;;;;;;5030346;28;20560;-63
2022/11/29 03:39:20;;;;;;;61.88;41.45;;;;;;;;;;5029118;28;20112;-65
2022/11/29 03:42:00;;;;;;;60.58;40.53;;;;;;;;;;5030380;28;20468;-64
2022/11/29 03:44:46;;;;;;;69.97;42.88;;;;;;;;;;5030184;28;20359;-65
2022/11/29 03:47:14;;;;;;;63.28;41.95;;;;;;;;;;5029182;28;20052;-64
2022/11/29 03:49:45;;;;;;;83.57;44.65;;;;;;;;;;5029173;28;20037;-64
2022/11/29 03:52:23;;;;;;;62.63;42.50;;;;;;;;;;5030391;28;20029;-66
2022/11/29 03:54:55;;;;;;;61.10;39.72;;;;;;;;;;5030301;28;20049;-65
2022/11/29 03:57:27;;;;;;;67.78;42.40;;;;;;;;;;5030244;28;20551;-65
2022/11/29 04:00:03;;;;;;;65.18;41.47;;;;;;;;;;5030130;28;20099;-65
2022/11/29 04:02:31;;;;;;;66.60;42.60;;;;;;;;;;5030321;28;20018;-64
2022/11/29 04:04:57;;;;;;;;;;;;;;;;;;5030604;28;20478;-65
2022/11/29 04:07:29;;;;;;;62.40;41.03;;;;;;;;;;5030049;28;19909;-65
2022/11/29 04:10:14;;;;;;;71.68;41.67;;;;;;;;;;5030258;28;20034;-66
2022/11/29 04:12:43;;;;;;;66.60;41.53;;;;;;;;;;5030239;28;20446;-64
2022/11/29 04:15:28;;;;;;;65.55;41.33;;;;;;;;;;5028451;28;20030;-63
2022/11/29 04:17:54;;;;;;;58.17;40.97;;;;;;;;;;5029838;28;20517;-65
2022/11/29 04:20:29;;;;;;;56.72;41.63;;;;;;;;;;5028730;28;20022;-65
2022/11/29 04:23:13;;;;;;;65.00;40.58;;;;;;;;;;5028739;28;20025;-65
2022/11/29 04:25:48;;;;;;;68.35;40.38;;;;;;;;;;5030167;28;20386;-63
2022/11/29 04:28:17;;;;;;;60.75;40.85;;;;;;;;;;5029835;28;20055;-67
2022/11/29 04:31:18;;;;;;;61.40;38.90;;;;;;;;;;5029785;28;20036;-65
2022/11/29 04:33:44;;;;;;;57.50;38.55;;;;;;;;;;4971902;28;20026;-65
2022/11/29 04:36:10;;;;;;;54.22;39.70;;;;;;;;;;5021194;28;20401;-66
2022/11/29 04:38:48;;;;;;;69.47;40.03;;;;;;;;;;5030224;28;20033;-66
2022/11/29 04:41:33;;;;;;;65.38;38.65;;;;;;;;;;5029864;28;20029;-65
2022/11/29 04:44:17;;;;;;;60.65;40.15;;;;;;;;;;5032331;28;20478;-65
2022/11/29 04:46:46;;;;;;;61.45;40.33;;;;;;;;;;5033425;28;20100;-65
2022/11/29 04:49:31;;;;;;;59.25;40.08;;;;;;;;;;5033523;28;20025;-64
2022/11/29 04:51:57;;;;;;;62.42;40.28;;;;;;;;;;5033503;28;20025;-63
2022/11/29 04:54:28;;;;;;;52.38;39.08;;;;;;;;;;5031956;28;20557;-64
2022/11/29 04:56:56;;;;;;;64.10;39.95;;;;;;;;;;5033612;28;20022;-63
2022/11/29 04:59:32;;;;;;;61.50;39.90;;;;;;;;;;5033404;28;20017;-65
2022/11/29 05:02:16;;;;;;;58.88;40.03;;;;;;;;;;5032105;28;20064;-64
2022/11/29 05:04:57;;;;;;;59.33;38.60;;;;;;;;;;5033110;28;20026;-64
2022/11/29 05:07:42;;;;;;;66.78;43.13;;;;;;;;;;5033260;28;20120;-66
2022/11/29 05:10:11;;;;;;;59.03;41.50;;;;;;;;;;5033122;28;20065;-64
2022/11/29 05:12:37;;;;;;;;;;;;;;;;;;5033698;28;20091;-64
2022/11/29 05:15:22;;;;;;;55.70;38.33;;;;;;;;;;5032756;28;19915;-64
2022/11/29 05:18:23;;;;;;;58.75;40.03;;;;;;;;;;5033332;28;20022;-66
2022/11/29 05:20:56;;;;;;;59.47;40.78;;;;;;;;;;4991165;28;20030;-64
2022/11/29 05:23:22;;;;;;;56.65;39.45;;;;;;;;;;5022256;28;20505;-66
2022/11/29 05:25:56;;;;;;;54.65;38.67;;;;;;;;;;5031743;28;20052;-66
2022/11/29 05:28:28;;;;;;;61.40;40.15;;;;;;;;;;5031746;28;20025;-65
2022/11/29 05:31:07;;;;;;;64.25;40.13;;;;;;;;;;5033071;28;20028;-68
2022/11/29 05:33:52;;;;;;;53.63;39.13;;;;;;;;;;5032705;28;20036;-64
2022/11/29 05:36:32;;;;;;;55.80;37.78;;;;;;;;;;5032699;28;20456;-64
2022/11/29 05:39:20;;;;;;;57.30;39.00;;;;;;;;;;5057240;22;20565;-58
2022/11/29 05:42:11;;;;;;;62.00;42.90;;;;;;;;;;5035074;28;20048;-55
2022/11/29 05:44:41;;;;;;;57.67;38.78;;;;;;;;;;5049173;28;20060;-58
2022/11/29 05:47:11;;;;;;;53.00;39.55;;;;;;;;;;5033883;28;20022;-62
2022/11/29 05:50:00;;;;;;;62.72;38.88;;;;;;;;;;5029833;28;20394;-60
2022/11/29 05:52:29;;;;;;;62.67;39.17;;;;;;;;;;5008397;28;20033;-61
2022/11/29 05:54:55;;;;;;;56.45;40.50;;;;;;;;;;5028481;28;20026;-63
2022/11/29 05:57:21;;;;;;;68.05;42.30;;;;;;;;;;5013668;28;20376;-59
2022/11/29 05:59:49;;;;;;;55.20;38.42;;;;;;;;;;5013829;28;20030;-59
2022/11/29 06:02:27;;;;;;;62.38;38.72;;;;;;;;;;5029063;28;20037;-58
2022/11/29 06:04:56;;;;;;;56.83;39.80;;;;;;;;;;5013958;28;20026;-55
2022/11/29 06:07:29;;;;;;;61.10;39.95;;;;;;;;;;5014096;28;20025;-59
2022/11/29 06:09:57;;;;;;;56.00;38.47;;;;;;;;;;5013822;28;20034;-60
2022/11/29 06:12:25;;;;;;;53.85;36.42;;;;;;;;;;5013510;28;20026;-60
2022/11/29 06:14:51;;;;;;;56.00;39.40;;;;;;;;;;5028410;28;20088;-62
2022/11/29 06:17:24;;;;;;;49.70;38.95;;;;;;;;;;5013666;28;20438;-60
2022/11/29 06:19:52;;;;;;;52.97;36.92;;;;;;;;;;5028981;28;20394;-61
2022/11/29 06:22:20;;;;;;;66.00;38.67;;;;;;;;;;5028388;28;20104;-60
2022/11/29 06:24:46;;;;;;;59.80;39.60;;;;;;;;;;5028253;28;20025;-59
2022/11/29 06:27:21;;;;;;;57.45;38.08;;;;;;;;;;5028611;28;20025;-61
2022/11/29 06:29:53;;;;;;;56.25;37.33;;;;;;;;;;5028937;28;20036;-61
2022/11/29 06:32:25;;;;;;;54.42;37.47;;;;;;;;;;5029285;28;20498;-63
2022/11/29 06:34:58;;;;;;;54.60;37.35;;;;;;;;;;5028294;28;20037;-61
2022/11/29 06:37:33;;;;;;;63.63;37.05;;;;;;;;;;5028714;28;20056;-60
2022/11/29 06:39:59;;;;;;;58.83;37.15;;;;;;;;;;5013261;28;20022;-61
2022/11/29 06:42:25;;;;;;;51.80;37.35;;;;;;;;;;5028084;28;20113;-61
2022/11/29 06:44:52;;;;;;;53.20;36.28;;;;;;;;;;5027615;28;20053;-61
2022/11/29 06:47:22;;;;;;;52.45;36.67;;;;;;;;;;5027557;28;20107;-59
2022/11/29 06:49:51;;;;;;;49.88;36.33;;;;;;;;;;5013239;28;20053;-63
2022/11/29 06:52:27;;;;;;;56.05;38.00;;;;;;;;;;5012786;28;20037;-60
2022/11/29 06:54:55;;;;;;;60.08;37.95;;;;;;;;;;5012494;28;20075;-61
2022/11/29 06:57:26;;;;;;;52.25;36.42;;;;;;;;;;5028898;28;20026;-56
2022/11/29 07:00:11;;;;;;;56.15;36.45;;;;;;;;;;5012208;28;20022;-59
2022/11/29 07:02:45;;;;;;;49.55;37.25;;;;;;;;;;5001037;28;20537;-53
2022/11/29 07:05:15;;;;;;;51.05;34.63;;;;;;;;;;5011541;28;20614;-60
2022/11/29 07:07:41;;;;;;;56.80;36.00;;;;;;;;;;5012962;28;20014;-63
2022/11/29 07:10:13;;;;;;;52.95;34.80;;;;;;;;;;5004987;28;20029;-60
2022/11/29 07:12:39;;;;;;;53.33;33.20;;;;;;;;;;4994004;28;20033;-61
2022/11/29 07:15:06;;;;;;;47.70;32.92;;;;;;;;;;4992207;28;20030;-61
2022/11/29 07:17:37;;;;;;;57.75;35.90;;;;;;;;;;4992617;28;20234;-60
2022/11/29 07:20:16;;;;;;;50.08;36.22;;;;;;;;;;4991371;28;20022;-59
2022/11/29 07:22:58;;;;;;;58.30;38.00;;;;;;;;;;4992505;28;20023;-59
2022/11/29 07:25:42;;;;;;;55.90;36.50;;;;;;;;;;4992587;28;20042;-61
2022/11/29 07:28:26;;;;;;;55.90;37.25;;;;;;;;;;4992550;28;20041;-58
2022/11/29 07:30:58;;;;;;;44.80;35.35;;;;;;;;;;4992354;28;20027;-55
2022/11/29 07:33:36;;;;;;;55.70;36.78;;;;;;;;;;4990905;28;20045;-59
2022/11/29 07:36:09;;;;;;;52.80;34.10;;;;;;;;;;5000810;28;20037;-61
2022/11/29 07:38:50;;;;;;;46.58;35.28;;;;;;;;;;5011712;28;20639;-61
2022/11/29 07:41:16;;;;;;;49.53;32.83;;;;;;;;;;5011886;28;20049;-65
2022/11/29 07:43:48;;;;;;;50.00;32.67;;;;;;;;;;5010700;28;20554;-63
2022/11/29 07:46:14;;;;;;;43.55;31.35;;;;;;;;;;5010488;28;20037;-63
2022/11/29 07:48:40;;;;;;;46.25;29.90;;;;;;;;;;5010657;28;20018;-62
2022/11/29 07:51:06;;;;;;;51.03;31.30;;;;;;;;;;5012100;28;20084;-63
2022/11/29 07:53:33;;;;;;;57.00;37.35;;;;;;;;;;5011538;28;20029;-61
2022/11/29 07:55:59;;;;;;;56.58;37.97;;;;;;;;;;5010673;28;20040;-63
2022/11/29 07:58:25;;;;;;;48.60;31.45;;;;;;;;;;5011738;28;20030;-63
2022/11/29 08:00:51;;;;;;;54.80;34.95;;;;;;;;;;5011578;28;20447;-61
2022/11/29 08:03:17;;;;;;;60.55;38.72;;;;;;;;;;5007189;28;20118;-62
2022/11/29 08:05:45;;;;;;;60.70;32.30;;;;;;;;;;5007018;28;20026;-56
2022/11/29 08:08:12;;;;;;;47.35;31.73;;;;;;;;;;5006959;28;20022;-60
2022/11/29 08:10:38;;;;;;;45.67;30.73;;;;;;;;;;4992177;28;20031;-60
2022/11/29 08:13:04;;;;;;;48.03;29.95;;;;;;;;;;4991978;28;20092;-60
2022/11/29 08:15:30;;;;;;;42.20;29.20;;;;;;;;;;5007071;28;20026;-59
2022/11/29 08:17:56;;;;;;;46.85;31.25;;;;;;;;;;5010112;28;20397;-55
2022/11/29 08:20:22;;;;;;;52.30;31.83;;;;;;;;;;4995989;28;20029;-60
2022/11/29 08:22:55;;;;;;;71.82;32.95;;;;;;;;;;4996003;28;20023;-62
2022/11/29 08:25:21;;;;;;;59.42;33.20;;;;;;;;;;4996211;28;20498;-62
2022/11/29 08:27:47;;;;;;;58.10;32.83;;;;;;;;;;4996068;28;20034;-63
2022/11/29 08:30:13;;;;;;;56.55;31.42;;;;;;;;;;5010462;28;20022;-61
2022/11/29 08:32:39;;;;;;;50.97;31.65;;;;;;;;;;5011078;28;20061;-61
2022/11/29 08:35:05;;;;;;;73.63;33.55;;;;;;;;;;5010557;28;20041;-63
2022/11/29 08:37:31;;;;;;;55.63;31.23;;;;;;;;;;5010260;28;20106;-60
2022/11/29 08:39:57;;;;;;;49.80;33.25;;;;;;;;;;5010328;28;20113;-61
2022/11/29 08:42:23;;;;;;;51.03;32.38;;;;;;;;;;5010964;28;20479;-62
2022/11/29 08:44:49;;;;;;;45.05;30.65;;;;;;;;;;4995641;28;20052;-61
2022/11/29 08:50:00;;;;;;;52.30;31.90;;;;;;;;;;4996094;28;20037;-61
2022/11/29 08:55:12;;;;;;;61.08;29.50;;;;;;;;;;4995800;28;20586;-61
2022/11/29 08:57:38;;;;;;;72.32;34.15;;;;;;;;;;4995680;28;20069;-61
2022/11/29 09:00:05;;;;;;;47.85;29.67;;;;;;;;;;4995640;28;20112;-61
2022/11/29 09:02:31;;;;;;;54.97;29.10;;;;;;;;;;4995559;28;20069;-62
2022/11/29 09:04:57;;;;;;;46.13;29.30;;;;;;;;;;5010405;28;20064;-62
2022/11/29 09:07:23;;;;;;;44.40;29.95;;;;;;;;;;5015146;28;20053;-61
2022/11/29 09:09:49;;;;;;;47.60;29.50;;;;;;;;;;5014892;28;20026;-61
2022/11/29 09:12:15;;;;;;;42.95;29.45;;;;;;;;;;5013689;28;20108;-61
2022/11/29 09:14:41;;;;;;;45.95;29.20;;;;;;;;;;5013389;28;20053;-61
2022/11/29 09:17:07;;;;;;;47.80;30.40;;;;;;;;;;5014916;28;20025;-62
2022/11/29 09:19:33;;;;;;;49.00;29.73;;;;;;;;;;5014995;28;20409;-65
2022/11/29 09:21:59;;;;;;;45.33;29.08;;;;;;;;;;5014311;28;20335;-64
2022/11/29 09:24:25;;;;;;;47.95;30.17;;;;;;;;;;5014980;28;20083;-65
2022/11/29 09:26:51;;;;;;;49.65;31.85;;;;;;;;;;5014838;28;20022;-65
2022/11/29 09:29:17;;;;;;;48.78;29.80;;;;;;;;;;5014738;28;20044;-64
2022/11/29 09:31:46;;;;;;;45.60;28.40;;;;;;;;;;5014466;28;20025;-65
2022/11/29 09:34:13;;;;;;;44.65;29.75;;;;;;;;;;5014365;28;20034;-65
2022/11/29 09:36:39;;;;;;;47.50;29.70;;;;;;;;;;5013684;28;20105;-65
2022/11/29 09:39:05;;;;;;;44.40;29.05;;;;;;;;;;5012441;28;20046;-65
2022/11/29 09:41:44;;;;;;;46.95;27.90;;;;;;;;;;5013784;28;20037;-65
2022/11/29 09:44:16;;;;;;;49.40;28.63;;;;;;;;;;5013396;28;20045;-65
2022/11/29 09:46:52;;;;;;;49.42;28.98;;;;;;;;;;5012643;28;20022;-65
2022/11/29 09:49:24;;;;;;;56.28;32.05;;;;;;;;;;5012676;28;20029;-64
2022/11/29 09:51:56;;;;;;;47.88;28.60;;;;;;;;;;5013073;28;20466;-65
2022/11/29 09:54:22;;;;;;;56.40;30.02;;;;;;;;;;5013655;28;20018;-64
2022/11/29 09:56:51;;;;;;;52.45;30.83;;;;;;;;;;5012620;28;20048;-63
2022/11/29 09:59:21;;;;;;;55.53;30.92;;;;;;;;;;5014224;28;20026;-63
2022/11/29 10:01:52;;;;;;;54.08;30.55;;;;;;;;;;5014379;28;20022;-64
2022/11/29 10:04:20;;;;;;;50.47;32.00;;;;;;;;;;5013978;28;20067;-64
2022/11/29 10:06:49;;;;;;;55.35;32.60;;;;;;;;;;5012501;28;20022;-64
2022/11/29 10:09:18;;;;;;;59.35;31.33;;;;;;;;;;5013867;28;20101;-64
2022/11/29 10:11:53;;;;;;;56.38;35.90;;;;;;;;;;5013545;28;20052;-64
2022/11/29 10:14:22;;;;;;;58.47;32.92;;;;;;;;;;5013706;28;20363;-64
2022/11/29 10:16:49;;;;;;;;;;;;;;;;;;5012178;28;20034;-64
2022/11/29 10:19:15;;;;;;;50.78;28.65;;;;;;;;;;5013785;28;19931;-64
2022/11/29 10:21:44;;;;;;;49.53;27.75;;;;;;;;;;5013716;28;20096;-64
2022/11/29 10:24:13;;;;;;;56.65;28.33;;;;;;;;;;5013046;28;20168;-63
2022/11/29 10:26:40;;;;;;;52.58;29.48;;;;;;;;;;5013203;28;20026;-64
2022/11/29 10:29:06;;;;;;;48.97;30.27;;;;;;;;;;5013715;28;20412;-64
2022/11/29 10:31:34;;;;;;;54.05;30.83;;;;;;;;;;5013056;28;20032;-62
2022/11/29 10:34:01;;;;;;;51.53;27.92;;;;;;;;;;5013332;28;20453;-64
2022/11/29 10:36:38;;;;;;;48.70;27.75;;;;;;;;;;5012384;28;20036;-62
2022/11/29 10:39:06;;;;;;;43.58;28.52;;;;;;;;;;5011831;28;20117;-64
2022/11/29 10:41:34;;;;;;;50.47;28.08;;;;;;;;;;5012335;28;20022;-64
2022/11/29 10:44:01;;;;;;;62.27;30.87;;;;;;;;;;5011596;28;20502;-63
2022/11/29 10:46:31;;;;;;;45.75;29.15;;;;;;;;;;5013575;28;20112;-64
2022/11/29 10:48:59;;;;;;;54.63;30.33;;;;;;;;;;5013366;28;20022;-64
2022/11/29 10:51:25;;;;;;;53.50;30.83;;;;;;;;;;5012042;28;20422;-64
2022/11/29 10:53:53;;;;;;;55.55;30.85;;;;;;;;;;5012911;28;20079;-64
2022/11/29 10:56:23;;;;;;;55.10;32.10;;;;;;;;;;5013618;28;20032;-65
2022/11/29 10:58:55;;;;;;;50.30;29.83;;;;;;;;;;5011906;28;20058;-65
2022/11/29 11:01:21;;;;;;;53.70;28.63;;;;;;;;;;5012991;28;20040;-65
2022/11/29 11:03:50;;;;;;;57.53;28.65;;;;;;;;;;5012733;28;20440;-65
2022/11/29 11:06:24;;;;;;;53.00;27.80;;;;;;;;;;5013079;28;20486;-63
2022/11/29 11:08:55;;;;;;;50.35;26.88;;;;;;;;;;5011873;28;20033;-64
2022/11/29 11:11:24;;;;;;;62.15;30.38;;;;;;;;;;5011956;28;20033;-64
2022/11/29 11:14:01;;;;;;;59.33;28.30;;;;;;;;;;5013508;28;20034;-61
2022/11/29 11:16:28;;;;;;;50.05;26.27;;;;;;;;;;5013339;28;20034;-65
2022/11/29 11:18:54;;;;;;;57.10;29.55;;;;;;;;;;5013522;28;20107;-64
2022/11/29 11:21:22;;;;;;;72.10;30.60;;;;;;;;;;5013910;28;20104;-66
2022/11/29 11:23:52;;;;;;;64.18;30.92;;;;;;;;;;5013163;28;20033;-62
2022/11/29 11:26:18;;;;;;;58.28;28.55;;;;;;;;;;5011642;28;20030;-64
2022/11/29 11:29:02;;;;;;;60.53;29.17;;;;;;;;;;5012507;28;20022;-66
2022/11/29 11:31:29;;;;;;;47.25;26.42;;;;;;;;;;5012909;28;20084;-65
2022/11/29 11:33:55;;;;;;;39.65;23.92;;;;;;;;;;5012408;28;20026;-66
2022/11/29 11:36:26;;;;;;;48.50;24.90;;;;;;;;;;5011408;28;20530;-64
2022/11/29 11:38:52;;;;;;;43.92;23.98;;;;;;;;;;5041719;23;20061;-67
2022/11/29 11:42:35;;;;;;;37.47;23.60;;;;;;;;;;5030645;28;20038;-67
2022/11/29 11:44:25;;;;;;;43.85;24.58;;;;;;;;;;5030563;28;20124;-67
2022/11/29 11:46:51;;;;;;;37.97;24.08;;;;;;;;;;5045725;28;20091;-66
2022/11/29 11:49:26;;;;;;;37.30;22.55;;;;;;;;;;5029862;28;20033;-66
2022/11/29 11:51:52;;;;;;;42.65;24.00;;;;;;;;;;5029571;28;20365;-67
2022/11/29 11:54:18;;;;;;;55.30;25.67;;;;;;;;;;5028685;28;20680;-66
2022/11/29 11:56:44;;;;;;;50.08;26.20;;;;;;;;;;5028523;28;20026;-65
2022/11/29 11:59:20;;;;;;;50.13;25.42;;;;;;;;;;5029961;28;20037;-67
2022/11/29 12:01:46;;;;;;;59.83;26.60;;;;;;;;;;5029506;28;20053;-65
2022/11/29 12:04:45;;;;;;;58.85;26.90;;;;;;;;;;5029488;28;20482;-66
2022/11/29 12:07:17;;;;;;;67.03;30.05;;;;;;;;;;5017644;28;20447;-66
2022/11/29 12:09:43;;;;;;;64.93;26.85;;;;;;;;;;5029335;28;20127;-66
2022/11/29 12:12:29;;;;;;;57.97;25.77;;;;;;;;;;5029799;28;20070;-65
2022/11/29 12:15:06;;;;;;;62.38;26.15;;;;;;;;;;5029222;28;20034;-66
2022/11/29 12:17:50;;;;;;;55.05;26.65;;;;;;;;;;5028323;28;20018;-65
2022/11/29 12:20:21;;;;;;;55.40;27.83;;;;;;;;;;5029492;28;20037;-66
2022/11/29 12:22:58;;;;;;;56.58;27.10;;;;;;;;;;4678910;28;10000054;-66
2022/11/29 12:25:31;;;;;;;51.25;24.67;;;;;;;;;;5027079;28;20022;-66
2022/11/29 12:27:57;;;;;;;47.17;22.50;;;;;;;;;;5027310;28;20083;-67
2022/11/29 12:30:23;;;;;;;51.55;23.27;;;;;;;;;;5025707;28;20141;-67
2022/11/29 12:32:49;;;;;;;46.63;22.42;;;;;;;;;;5027010;28;20235;-67
2022/11/29 12:35:34;;;;;;;48.03;25.55;;;;;;;;;;5025764;28;20037;-66
2022/11/29 12:38:06;;;;;;;44.80;21.80;;;;;;;;;;5025160;28;20025;-66
2022/11/29 12:40:44;;;;;;;51.72;25.50;;;;;;;;;;5026605;28;20466;-67
2022/11/29 12:43:14;;;;;;;42.53;21.23;;;;;;;;;;5026520;28;20068;-66
2022/11/29 12:45:43;;;;;;;50.10;24.45;;;;;;;;;;5026779;28;20033;-68
2022/11/29 12:48:21;;;;;;;55.15;23.30;;;;;;;;;;5026806;28;20036;-67
2022/11/29 12:51:02;;;;;;;49.22;23.38;;;;;;;;;;5026233;28;20026;-67
2022/11/29 12:53:40;;;;;;;49.20;22.10;;;;;;;;;;5024956;28;20063;-67
2022/11/29 12:56:16;;;;;;;56.33;23.20;;;;;;;;;;5026554;28;20144;-67
2022/11/29 12:58:55;;;;;;;48.03;23.52;;;;;;;;;;5021750;28;20029;-66
2022/11/29 13:01:25;;;;;;;44.70;21.67;;;;;;;;;;5026443;28;20045;-67
2022/11/29 13:03:53;;;;;;;41.20;21.45;;;;;;;;;;5026959;28;20814;-66
2022/11/29 13:06:29;;;;;;;41.22;20.85;;;;;;;;;;5030058;28;20030;-67
2022/11/29 13:08:55;;;;;;;40.95;20.65;;;;;;;;;;5030095;28;20494;-66
2022/11/29 13:11:21;;;;;;;40.35;19.63;;;;;;;;;;5031429;28;20033;-66
2022/11/29 13:13:53;;;;;;;44.53;20.55;;;;;;;;;;5031104;28;20029;-65
2022/11/29 13:16:19;;;;;;;44.22;20.98;;;;;;;;;;4683975;28;10000573;-65
2022/11/29 13:18:54;;;;;;;42.08;21.63;;;;;;;;;;5029958;28;20030;-67
2022/11/29 13:21:30;;;;;;;50.95;22.73;;;;;;;;;;5028385;28;20132;-66
2022/11/29 13:24:04;;;;;;;41.00;21.42;;;;;;;;;;5030005;28;20025;-67
2022/11/29 13:26:31;;;;;;;43.50;18.77;;;;;;;;;;5030387;28;20115;-68
2022/11/29 13:28:57;;;;;;;41.45;18.50;;;;;;;;;;5030908;28;20506;-70
2022/11/29 13:31:24;;;;;;;46.65;20.48;;;;;;;;;;5032220;28;20120;-68
2022/11/29 13:33:53;;;;;;;38.47;18.65;;;;;;;;;;5030585;28;20048;-67
2022/11/29 13:36:30;;;;;;;38.83;18.98;;;;;;;;;;5032055;28;20518;-67
2022/11/29 13:38:59;;;;;;;40.25;19.50;;;;;;;;;;5032082;28;20030;-68
2022/11/29 13:41:28;;;;;;;37.55;19.98;;;;;;;;;;5032039;28;20029;-66
2022/11/29 13:43:58;;;;;;;39.00;19.42;;;;;;;;;;5028047;28;20028;-66
2022/11/29 13:46:46;;;;;;;38.15;20.83;;;;;;;;;;5031222;28;20017;-66
2022/11/29 13:49:22;;;;;;;38.23;19.43;;;;;;;;;;5030978;28;20066;-67
2022/11/29 13:51:49;;;;;;;42.53;20.58;;;;;;;;;;5031656;28;20039;-66
2022/11/29 13:54:31;;;;;;;34.03;20.83;;;;;;;;;;5031150;28;20025;-67
2022/11/29 13:57:02;;;;;;;39.83;21.73;;;;;;;;;;5029179;28;20037;-66
2022/11/29 13:59:29;;;;;;;35.20;20.05;;;;;;;;;;5030409;28;20025;-68
2022/11/29 14:01:57;;;;;;;41.83;22.23;;;;;;;;;;5031272;28;20017;-65
2022/11/29 14:04:26;;;;;;;42.28;21.02;;;;;;;;;;5029647;28;20497;-67
2022/11/29 14:07:10;;;;;;;40.65;21.10;;;;;;;;;;5031630;28;20148;-68
2022/11/29 14:09:42;;;;;;;37.53;18.55;;;;;;;;;;5031421;28;20026;-68
2022/11/29 14:12:27;;;;;;;34.42;19.77;;;;;;;;;;5031595;28;20122;-67
2022/11/29 14:15:00;;;;;;;34.65;18.02;;;;;;;;;;5030938;28;20036;-67
2022/11/29 14:17:32;;;;;;;35.55;18.25;;;;;;;;;;5030527;28;20053;-66
2022/11/29 14:20:17;;;;;;;35.17;19.15;;;;;;;;;;5031329;28;20064;-67
2022/11/29 14:23:02;;;;;;;38.58;20.27;;;;;;;;;;5029668;28;20025;-68
2022/11/29 14:25:28;;;;;;;32.58;19.60;;;;;;;;;;5030438;28;20025;-67
2022/11/29 14:27:55;;;;;;;34.70;19.35;;;;;;;;;;5031146;28;20075;-68
2022/11/29 14:30:29;;;;;;;35.00;19.42;;;;;;;;;;5029992;28;20025;-66
2022/11/29 14:32:58;;;;;;;38.28;18.88;;;;;;;;;;5011526;28;20509;-65
2022/11/29 14:35:43;;;;;;;38.83;20.90;;;;;;;;;;5011385;28;20038;-64
2022/11/29 14:38:12;;;;;;;38.50;19.60;;;;;;;;;;5009584;28;20096;-67
2022/11/29 14:40:42;;;;;;;38.10;19.95;;;;;;;;;;5011075;28;20391;-68
2022/11/29 14:43:22;;;;;;;40.13;22.25;;;;;;;;;;5011157;28;20030;-68
2022/11/29 14:46:06;;;;;;;33.05;18.38;;;;;;;;;;5011359;28;20037;-66
2022/11/29 14:48:32;;;;;;;36.05;20.33;;;;;;;;;;5011019;28;20088;-68